Hlavní strana
METAR-TAF:

METAR-TAF

Letiště :

Berlevåg, Norsko

zeměpisná šířka: 70-52N, zeměpisná délka: 029-02E, výška: 1 m

Aktuální stav počasí

Zpráva byla vytvořena před 6 hodinami a 22 minutami, v 21:50 UTC
Jihozápadní vítr 5 kt
Teplota -2°C
Vlhkost vzduchu 80%
Tlak 1023 hPa
Viditelnost 10 km a více
Polojasno ve výšce 1900 ft
Oblačno až skoro zataženo ve výšce 10000 ft

METAR: ENBV 172150Z 23005KT 9999 SCT019 BKN100 M02/M05 Q1023

Čas: 05:12 (04:12 UTC)


TAF: chybějící

Stav a předpovědi počasí z více než 4 000 letišť (zprávy METAR a TAF).

Červené a žluté tečky na mapě představují dostupné meteorologické stanice.

Když kurzor umístíte na tečku, zobrazí se název stanice.

Pak kliknutím zobrazíte stav a předpověď počasí.

Chcete-li změnit mapu, kliknutím na zelené tlačítko se znaménkem +mapu přiblížíte, kliknutím na zelené tlačítko se znaménkem – mapu oddálíte a kliknutím na zelené šipky přejdete na sousední mapy.


METAR-TAF: